Time;durP1;ratioP1;P1;durP2;ratioP2;P2;SDS_P1;SDS_P2;PMS_P1;PMS_P2;Temp;Humidity;BMP_temperature;BMP_pressure;BME280_temperature;BME280_humidity;BME280_pressure;Samples;Min_cycle;Max_cycle;Signal;HPM_P1;HPM_P2
2022/05/18 00:01:51;;;;;;;1.00;0.47;;;15.90;99.90;;;;;;4413228;32;20077;-70
2022/05/18 00:04:17;;;;;;;1.50;1.15;;;15.80;99.90;;;;;;4421796;32;20086;-70
2022/05/18 00:06:42;;;;;;;0.47;0.47;;;15.80;99.90;;;;;;4423433;32;20109;-70
2022/05/18 00:09:08;;;;;;;0.52;0.52;;;15.80;99.90;;;;;;4423881;32;20074;-71
2022/05/18 00:11:33;;;;;;;0.40;0.40;;;15.70;99.90;;;;;;4424636;32;20077;-70
2022/05/18 00:13:59;;;;;;;0.30;0.30;;;15.70;99.90;;;;;;4427148;32;20124;-71
2022/05/18 00:16:26;;;;;;;0.35;0.30;;;15.60;99.90;;;;;;4425987;32;20086;-70
2022/05/18 00:18:53;;;;;;;0.47;0.47;;;15.50;99.90;;;;;;4425825;32;20086;-70
2022/05/18 00:21:20;;;;;;;0.30;0.30;;;15.50;99.90;;;;;;4425902;32;20069;-70
2022/05/18 00:23:46;;;;;;;0.55;0.30;;;15.50;99.90;;;;;;4424791;32;20168;-70
2022/05/18 00:26:11;;;;;;;6.10;1.55;;;15.40;99.90;;;;;;4423587;32;20116;-70
2022/05/18 00:28:37;;;;;;;0.32;0.32;;;15.50;99.90;;;;;;4410093;32;20435;-70
2022/05/18 00:31:03;;;;;;;0.40;0.40;;;15.50;99.90;;;;;;4407077;32;20090;-70
2022/05/18 00:33:30;;;;;;;0.20;0.20;;;15.40;99.90;;;;;;4424010;32;20069;-70
2022/05/18 00:35:57;;;;;;;2.70;0.57;;;15.30;99.90;;;;;;4425023;32;20180;-70
2022/05/18 00:38:22;;;;;;;0.70;0.50;;;15.20;99.90;;;;;;4423925;32;20069;-70
2022/05/18 00:40:49;;;;;;;0.35;0.35;;;15.20;99.90;;;;;;4426342;32;20169;-70
2022/05/18 00:43:19;;;;;;;0.17;0.17;;;15.20;99.90;;;;;;4425247;32;20554;-70
2022/05/18 00:45:46;;;;;;;20.30;1.45;;;15.20;99.90;;;;;;4424476;32;20070;-70
2022/05/18 00:48:11;;;;;;;0.47;0.45;;;15.20;99.90;;;;;;4424764;32;20160;-70
2022/05/18 00:50:37;;;;;;;0.45;0.45;;;15.30;99.90;;;;;;4427015;32;20513;-70
2022/05/18 00:53:07;;;;;;;0.40;0.40;;;15.30;99.90;;;;;;4427416;32;20414;-70
2022/05/18 00:55:38;;;;;;;0.40;0.37;;;15.40;99.90;;;;;;4427473;32;20086;-70
2022/05/18 00:58:14;;;;;;;0.68;0.68;;;15.30;99.90;;;;;;4418055;32;20445;-70
2022/05/18 01:00:40;;;;;;;0.28;0.28;;;15.30;99.90;;;;;;4407029;32;20132;-71
2022/05/18 01:03:16;;;;;;;0.45;0.45;;;15.20;99.90;;;;;;4428033;32;20093;-69
2022/05/18 01:05:46;;;;;;;0.30;0.30;;;15.10;99.90;;;;;;4426051;32;20054;-70
2022/05/18 01:08:18;;;;;;;2.10;0.50;;;15.10;99.90;;;;;;4426853;32;20152;-71
2022/05/18 01:10:43;;;;;;;0.35;0.35;;;15.10;99.90;;;;;;4428452;32;20054;-69
2022/05/18 01:13:09;;;;;;;0.40;0.40;;;15.10;99.90;;;;;;4427844;32;20101;-71
2022/05/18 01:15:34;;;;;;;0.62;0.28;;;15.10;99.90;;;;;;4425996;32;20062;-69
2022/05/18 01:18:01;;;;;;;0.52;0.45;;;15.10;99.70;;;;;;4426023;32;20103;-70
2022/05/18 01:20:32;;;;;;;0.55;0.55;;;15.00;99.90;;;;;;4427535;32;20447;-70
2022/05/18 01:23:26;;;;;;;0.57;0.55;;;15.00;99.90;;;;;;4425343;32;20098;-70
2022/05/18 01:26:15;;;;;;;0.62;0.60;;;14.90;99.50;;;;;;4419128;32;20094;-70
2022/05/18 01:28:46;;;;;;;0.62;0.60;;;14.90;99.90;;;;;;4400622;32;20085;-70
2022/05/18 01:31:12;;;;;;;0.30;0.30;;;14.80;99.90;;;;;;4411145;32;20136;-69
2022/05/18 01:33:37;;;;;;;0.40;0.40;;;14.70;99.40;;;;;;4427200;32;20357;-70
2022/05/18 01:36:04;;;;;;;0.30;0.30;;;14.80;99.60;;;;;;4427265;32;20154;-70
2022/05/18 01:38:31;;;;;;;0.20;0.20;;;14.70;98.90;;;;;;4425917;32;20174;-70
2022/05/18 01:41:07;;;;;;;0.35;0.35;;;14.70;99.20;;;;;;4427419;32;20089;-70
2022/05/18 01:43:53;;;;;;;0.50;0.50;;;14.60;99.00;;;;;;4426982;32;20127;-70
2022/05/18 01:46:21;;;;;;;0.40;0.40;;;14.50;99.20;;;;;;4413778;32;20097;-70
2022/05/18 01:48:50;;;;;;;1.85;1.25;;;14.60;99.00;;;;;;4424721;32;20415;-70
2022/05/18 01:51:38;;;;;;;0.57;0.57;;;14.60;98.70;;;;;;4426918;32;20077;-69
2022/05/18 01:54:03;;;;;;;0.30;0.30;;;14.60;98.20;;;;;;4425190;32;20129;-70
2022/05/18 01:56:29;;;;;;;3.53;1.40;;;14.60;98.80;;;;;;4424666;32;20099;-70
2022/05/18 01:58:55;;;;;;;0.20;0.20;;;14.50;98.30;;;;;;4409398;32;20151;-70
2022/05/18 02:01:20;;;;;;;0.60;0.60;;;14.50;98.10;;;;;;4407624;32;20065;-70
2022/05/18 02:03:47;;;;;;;0.25;0.25;;;14.50;98.20;;;;;;4425545;32;20492;-70
2022/05/18 02:06:12;;;;;;;0.80;0.60;;;14.40;98.00;;;;;;4426627;32;20418;-70
2022/05/18 02:08:40;;;;;;;3.40;0.60;;;14.30;99.80;;;;;;4425179;32;20073;-70
2022/05/18 02:11:09;;;;;;;0.30;0.30;;;14.30;98.10;;;;;;4426138;32;20061;-70
2022/05/18 02:13:35;;;;;;;2.62;1.10;;;14.30;97.80;;;;;;4426530;32;20086;-70
2022/05/18 02:16:02;;;;;;;2.80;1.20;;;14.30;98.00;;;;;;4425482;32;20501;-70
2022/05/18 02:18:28;;;;;;;0.20;0.20;;;14.30;97.80;;;;;;4425766;32;20061;-70
2022/05/18 02:20:54;;;;;;;0.20;0.20;;;14.20;98.30;;;;;;4428691;32;20350;-70
2022/05/18 02:23:19;;;;;;;0.35;0.35;;;14.20;98.70;;;;;;4424743;32;20117;-69
2022/05/18 02:25:45;;;;;;;0.40;0.40;;;14.00;96.90;;;;;;4429201;32;20061;-69
2022/05/18 02:28:10;;;;;;;0.50;0.50;;;14.10;97.20;;;;;;4414296;32;20215;-70
2022/05/18 02:30:36;;;;;;;0.35;0.35;;;14.10;96.10;;;;;;4406912;32;20081;-70
2022/05/18 02:33:01;;;;;;;0.20;0.20;;;14.10;96.30;;;;;;4424822;32;20442;-70
2022/05/18 02:35:27;;;;;;;4.00;0.37;;;14.00;95.80;;;;;;4425756;32;20098;-70
2022/05/18 02:37:52;;;;;;;0.28;0.28;;;13.90;96.30;;;;;;4424923;32;20189;-70
2022/05/18 02:40:18;;;;;;;0.30;0.30;;;13.90;96.10;;;;;;4429187;32;20085;-70
2022/05/18 02:42:43;;;;;;;0.85;0.32;;;13.90;95.70;;;;;;4425918;32;20098;-70
2022/05/18 02:45:10;;;;;;;12.82;1.92;;;13.90;96.30;;;;;;4426653;32;20069;-70
2022/05/18 02:47:35;;;;;;;0.20;0.20;;;13.80;94.90;;;;;;4425230;32;20123;-70
2022/05/18 02:50:01;;;;;;;0.20;0.20;;;13.90;96.00;;;;;;4426503;32;20098;-69
2022/05/18 02:52:27;;;;;;;0.20;0.20;;;13.90;94.00;;;;;;4425890;32;20473;-70
2022/05/18 02:56:07;;;;;;;0.70;0.70;;;13.80;93.90;;;;;;4424957;32;20081;-70
2022/05/18 02:57:37;;;;;;;0.25;0.25;;;13.80;94.10;;;;;;4406892;32;20082;-70
2022/05/18 03:00:05;;;;;;;0.40;0.40;;;13.80;94.20;;;;;;4406156;32;20473;-70
2022/05/18 03:02:30;;;;;;;0.20;0.20;;;13.70;93.80;;;;;;4420751;32;20073;-70
2022/05/18 03:04:56;;;;;;;2.92;0.55;;;13.70;92.90;;;;;;4428200;32;20070;-70
2022/05/18 03:07:21;;;;;;;0.40;0.40;;;13.70;93.40;;;;;;4425505;32;20069;-70
2022/05/18 03:09:46;;;;;;;0.22;0.22;;;13.70;93.60;;;;;;4424700;32;20089;-70
2022/05/18 03:12:12;;;;;;;0.30;0.30;;;13.70;92.50;;;;;;4427615;32;20109;-70
2022/05/18 03:14:37;;;;;;;0.40;0.40;;;13.80;91.90;;;;;;4426931;32;20085;-70
2022/05/18 03:17:03;;;;;;;2.60;1.27;;;13.70;92.30;;;;;;4426806;32;20563;-70
2022/05/18 03:19:29;;;;;;;0.40;0.40;;;13.70;91.90;;;;;;4425707;32;20185;-70
2022/05/18 03:23:54;;;;;;;0.20;0.20;;;13.70;92.40;;;;;;4427058;32;20112;-70
2022/05/18 03:24:40;;;;;;;0.30;0.30;;;13.70;91.20;;;;;;4414502;32;20093;-70
2022/05/18 03:27:05;;;;;;;3.20;1.08;;;13.70;91.30;;;;;;4426918;32;20101;-70
2022/05/18 03:29:32;;;;;;;1.67;0.93;;;13.70;90.90;;;;;;4404668;32;20541;-70
2022/05/18 03:31:57;;;;;;;0.20;0.20;;;13.70;92.00;;;;;;4415722;32;20130;-70
2022/05/18 03:34:23;;;;;;;0.28;0.28;;;13.80;91.80;;;;;;4425062;32;20578;-70
2022/05/18 03:36:49;;;;;;;0.30;0.30;;;13.70;90.90;;;;;;4426718;32;20611;-71
2022/05/18 03:39:15;;;;;;;0.35;0.35;;;13.60;90.90;;;;;;4425170;32;20121;-71
2022/05/18 03:41:40;;;;;;;0.52;0.52;;;13.70;90.90;;;;;;4427307;32;20529;-71
2022/05/18 03:44:07;;;;;;;2.35;1.35;;;13.70;90.90;;;;;;4425136;32;20157;-71
2022/05/18 03:46:33;;;;;;;0.37;0.37;;;13.70;91.90;;;;;;4423951;32;20065;-71
2022/05/18 03:48:59;;;;;;;0.30;0.30;;;13.50;92.70;;;;;;4423736;32;20097;-71
2022/05/18 03:51:25;;;;;;;0.20;0.20;;;13.50;91.90;;;;;;4423796;32;20089;-71
2022/05/18 03:53:51;;;;;;;4.95;0.50;;;13.40;91.00;;;;;;4424057;32;20093;-71
2022/05/18 03:56:17;;;;;;;0.30;0.30;;;13.40;91.40;;;;;;4425982;32;20136;-71
2022/05/18 03:58:43;;;;;;;0.17;0.17;;;13.40;90.70;;;;;;4410655;32;20153;-71
2022/05/18 04:01:09;;;;;;;0.25;0.25;;;13.30;91.40;;;;;;4408466;32;20123;-71
2022/05/18 04:03:38;;;;;;;0.20;0.20;;;13.40;91.70;;;;;;4423978;32;20495;-71
2022/05/18 04:06:04;;;;;;;2.33;0.95;;;13.30;91.40;;;;;;4425389;32;20089;-71
2022/05/18 04:08:30;;;;;;;0.37;0.30;;;13.30;91.10;;;;;;4424836;32;20517;-71
2022/05/18 04:10:55;;;;;;;0.30;0.30;;;13.40;91.40;;;;;;4426019;32;20077;-71
2022/05/18 04:13:24;;;;;;;0.40;0.40;;;13.50;91.20;;;;;;4425675;32;20578;-71
2022/05/18 04:15:50;;;;;;;0.22;0.22;;;13.50;91.10;;;;;;4427037;32;20076;-71
2022/05/18 04:18:16;;;;;;;0.35;0.30;;;13.60;90.80;;;;;;4427859;32;20068;-71
2022/05/18 04:20:42;;;;;;;0.40;0.40;;;13.60;90.90;;;;;;4420062;32;20450;-71
2022/05/18 04:23:08;;;;;;;0.40;0.40;;;13.60;92.00;;;;;;4390288;32;20574;-71
2022/05/18 04:25:36;;;;;;;0.28;0.28;;;13.60;91.20;;;;;;4380229;32;20584;-71
2022/05/18 04:28:01;;;;;;;0.30;0.30;;;13.60;92.80;;;;;;4373233;32;20101;-71
2022/05/18 04:30:27;;;;;;;0.20;0.20;;;13.50;91.50;;;;;;4367246;32;20867;-71
2022/05/18 04:32:53;;;;;;;0.20;0.20;;;13.40;91.10;;;;;;4373147;32;20150;-71
2022/05/18 04:35:22;;;;;;;0.65;0.43;;;13.40;91.50;;;;;;4405287;32;20444;-71
2022/05/18 04:37:47;;;;;;;0.30;0.30;;;13.40;92.20;;;;;;4423760;32;20073;-71
2022/05/18 04:40:13;;;;;;;0.35;0.35;;;13.50;91.30;;;;;;4421300;32;20085;-70
2022/05/18 04:42:39;;;;;;;0.45;0.45;;;13.60;91.40;;;;;;4424595;32;20070;-71
2022/05/18 04:45:08;;;;;;;0.20;0.20;;;13.60;91.10;;;;;;4424894;32;20065;-71
2022/05/18 04:47:34;;;;;;;0.62;0.50;;;13.60;90.80;;;;;;4424907;32;20078;-71
2022/05/18 04:49:59;;;;;;;0.20;0.20;;;13.50;91.30;;;;;;4424767;32;20578;-69
2022/05/18 04:52:26;;;;;;;0.40;0.40;;;13.50;91.50;;;;;;4407728;32;20639;-71
2022/05/18 04:54:51;;;;;;;0.40;0.40;;;13.50;91.90;;;;;;4378304;32;20155;-70
2022/05/18 04:57:17;;;;;;;0.85;0.55;;;13.60;92.40;;;;;;4411617;32;20196;-71
2022/05/18 04:59:43;;;;;;;0.22;0.22;;;13.50;92.20;;;;;;4403583;32;20540;-71
2022/05/18 05:02:09;;;;;;;0.40;0.40;;;13.60;92.40;;;;;;4404040;32;20065;-71
2022/05/18 05:04:35;;;;;;;0.37;0.37;;;13.50;92.10;;;;;;4384789;32;20396;-70
2022/05/18 05:07:02;;;;;;;0.28;0.28;;;13.50;92.60;;;;;;4380409;32;20390;-70
2022/05/18 05:09:27;;;;;;;0.20;0.20;;;13.70;92.70;;;;;;4368353;32;20106;-72
2022/05/18 05:11:54;;;;;;;0.20;0.20;;;13.60;91.60;;;;;;4372608;32;20077;-71
2022/05/18 05:14:20;;;;;;;0.30;0.30;;;13.70;92.00;;;;;;4370126;32;20382;-71
2022/05/18 05:16:46;;;;;;;0.28;0.28;;;13.70;91.60;;;;;;4386174;32;20086;-71
2022/05/18 05:19:13;;;;;;;0.32;0.32;;;13.70;92.20;;;;;;4338155;32;20077;-71
2022/05/18 05:21:42;;;;;;;0.20;0.20;;;13.80;92.30;;;;;;4344462;32;20362;-71
2022/05/18 05:24:09;;;;;;;0.37;0.37;;;13.80;92.60;;;;;;4317680;32;20210;-71
2022/05/18 05:26:35;;;;;;;0.20;0.20;;;13.70;93.30;;;;;;4325367;32;20106;-70
2022/05/18 05:29:01;;;;;;;4.57;1.45;;;13.70;92.60;;;;;;4321628;32;20247;-71
2022/05/18 05:31:26;;;;;;;2.00;0.85;;;13.90;92.30;;;;;;4316018;32;20141;-70
2022/05/18 05:33:52;;;;;;;0.45;0.40;;;13.80;92.80;;;;;;4339573;32;20419;-71
2022/05/18 05:36:18;;;;;;;2.45;0.35;;;13.80;92.60;;;;;;4340405;32;20149;-71
2022/05/18 05:38:44;;;;;;;0.35;0.35;;;14.00;93.10;;;;;;4339464;32;21419;-71
2022/05/18 05:41:15;;;;;;;0.40;0.40;;;14.00;93.20;;;;;;4359983;32;20248;-71
2022/05/18 05:43:41;;;;;;;0.30;0.30;;;14.00;92.50;;;;;;4365909;32;20463;-69
2022/05/18 05:46:10;;;;;;;0.85;0.60;;;14.00;92.60;;;;;;4384931;32;20090;-70
2022/05/18 05:48:36;;;;;;;0.17;0.17;;;14.10;92.90;;;;;;4388886;32;20311;-70
2022/05/18 05:51:03;;;;;;;0.30;0.30;;;14.00;92.50;;;;;;4376151;32;20069;-70
2022/05/18 05:53:30;;;;;;;0.20;0.20;;;14.10;93.00;;;;;;4381540;32;20685;-71
2022/05/18 05:55:55;;;;;;;0.40;0.40;;;14.20;93.60;;;;;;4377798;32;20389;-71
2022/05/18 05:58:22;;;;;;;0.70;0.70;;;14.40;94.00;;;;;;4363368;32;20117;-71
2022/05/18 06:00:48;;;;;;;0.20;0.20;;;14.30;92.50;;;;;;4359454;32;20245;-71
2022/05/18 06:03:14;;;;;;;0.28;0.28;;;14.30;93.40;;;;;;4351231;32;21329;-71
2022/05/18 06:05:40;;;;;;;0.28;0.28;;;14.50;92.90;;;;;;4348551;32;20307;-70
2022/05/18 06:08:07;;;;;;;0.30;0.30;;;14.60;93.40;;;;;;4369615;32;20118;-71
2022/05/18 06:10:34;;;;;;;0.20;0.20;;;14.70;92.70;;;;;;4383067;32;20570;-70
2022/05/18 06:13:04;;;;;;;2.67;0.57;;;14.70;92.60;;;;;;4382492;32;20408;-70
2022/05/18 06:15:29;;;;;;;0.30;0.30;;;14.70;93.00;;;;;;4384659;32;20163;-70
2022/05/18 06:17:55;;;;;;;2.30;1.27;;;14.80;92.90;;;;;;4381383;32;20259;-70
2022/05/18 06:20:20;;;;;;;0.50;0.40;;;14.90;92.50;;;;;;4373280;32;20244;-70
2022/05/18 06:22:46;;;;;;;0.20;0.20;;;14.90;92.40;;;;;;4379933;32;20097;-70
2022/05/18 06:25:13;;;;;;;0.30;0.30;;;14.80;92.60;;;;;;4385714;32;20105;-70
2022/05/18 06:27:40;;;;;;;0.20;0.20;;;14.80;93.50;;;;;;4380870;32;20118;-71
2022/05/18 06:30:09;;;;;;;0.28;0.28;;;14.80;93.60;;;;;;4366780;32;20112;-70
2022/05/18 06:32:34;;;;;;;0.30;0.30;;;14.90;94.00;;;;;;4361314;32;20149;-70
2022/05/18 06:35:00;;;;;;;0.60;0.60;;;15.10;92.80;;;;;;4354820;32;20772;-70
2022/05/18 06:37:25;;;;;;;0.62;0.45;;;15.20;92.80;;;;;;4367287;32;20520;-69
2022/05/18 06:39:51;;;;;;;0.30;0.30;;;15.20;92.90;;;;;;4375236;32;20097;-70
2022/05/18 06:42:16;;;;;;;0.20;0.20;;;15.30;93.40;;;;;;4385479;32;20196;-70
2022/05/18 06:44:42;;;;;;;0.20;0.20;;;15.40;94.80;;;;;;4383469;32;20802;-70
2022/05/18 06:47:07;;;;;;;1.60;0.45;;;15.50;93.30;;;;;;4382871;32;20486;-70
2022/05/18 06:49:33;;;;;;;0.62;0.35;;;15.60;94.00;;;;;;4369827;32;20195;-70
2022/05/18 06:51:59;;;;;;;3.42;0.70;;;15.70;93.50;;;;;;4378568;32;20106;-70
2022/05/18 06:54:24;;;;;;;0.40;0.40;;;15.80;93.50;;;;;;4379472;32;21333;-72
2022/05/18 06:56:50;;;;;;;0.35;0.35;;;15.80;94.00;;;;;;4390222;32;20097;-70
2022/05/18 06:59:16;;;;;;;0.30;0.30;;;15.90;93.80;;;;;;4377095;32;20168;-69
2022/05/18 07:01:42;;;;;;;1.98;0.82;;;15.90;93.80;;;;;;4367568;32;20163;-69
2022/05/18 07:04:09;;;;;;;0.30;0.30;;;16.00;93.40;;;;;;4361064;32;20085;-70
2022/05/18 07:06:38;;;;;;;0.80;0.80;;;16.00;93.30;;;;;;4363432;32;20237;-69
2022/05/18 07:09:08;;;;;;;0.62;0.62;;;16.10;93.60;;;;;;4381977;32;20109;-71
2022/05/18 07:11:36;;;;;;;0.40;0.40;;;16.10;93.50;;;;;;4387400;32;20089;-69
2022/05/18 07:14:03;;;;;;;0.30;0.30;;;16.10;93.70;;;;;;4381370;32;20098;-71
2022/05/18 07:16:29;;;;;;;0.50;0.40;;;16.20;94.30;;;;;;4384171;32;20133;-72
2022/05/18 07:18:55;;;;;;;0.30;0.30;;;16.30;94.40;;;;;;4379092;32;20668;-71
2022/05/18 07:21:21;;;;;;;0.30;0.30;;;16.40;94.10;;;;;;4378066;32;20093;-71
2022/05/18 07:23:47;;;;;;;0.50;0.50;;;16.60;94.10;;;;;;4379347;32;20140;-71
2022/05/18 07:26:15;;;;;;;1.12;0.43;;;16.50;95.20;;;;;;4388097;32;20437;-71
2022/05/18 07:28:41;;;;;;;4.07;1.27;;;16.50;94.30;;;;;;4368676;32;20217;-71
2022/05/18 07:31:07;;;;;;;0.90;0.60;;;16.70;95.00;;;;;;4335185;32;20213;-71
2022/05/18 07:33:34;;;;;;;0.35;0.35;;;16.90;95.00;;;;;;4334203;32;20218;-71
2022/05/18 07:35:59;;;;;;;0.65;0.65;;;17.20;94.70;;;;;;4341404;32;88940;-71
2022/05/18 07:38:27;;;;;;;0.30;0.30;;;17.40;93.60;;;;;;4363705;32;20200;-71
2022/05/18 07:40:53;;;;;;;0.40;0.40;;;17.50;93.70;;;;;;4370116;32;20184;-71
2022/05/18 07:43:19;;;;;;;0.60;0.60;;;17.60;94.60;;;;;;4376807;32;21225;-72
2022/05/18 07:45:46;;;;;;;0.30;0.30;;;17.70;93.90;;;;;;4377541;32;20320;-73
2022/05/18 07:48:11;;;;;;;0.30;0.30;;;17.80;94.20;;;;;;4370161;32;21418;-71
2022/05/18 07:50:37;;;;;;;0.30;0.30;;;18.00;93.80;;;;;;4359045;32;20097;-71
2022/05/18 07:53:03;;;;;;;20.60;0.77;;;17.90;94.40;;;;;;4353443;32;20514;-71
2022/05/18 07:55:28;;;;;;;0.50;0.50;;;17.90;94.40;;;;;;4348041;32;20690;-71
2022/05/18 07:57:54;;;;;;;3.72;0.60;;;18.00;93.80;;;;;;4357374;32;20105;-71
2022/05/18 08:00:23;;;;;;;0.50;0.50;;;18.10;94.00;;;;;;4347726;32;20268;-71
2022/05/18 08:02:48;;;;;;;0.35;0.35;;;18.20;93.90;;;;;;4341279;32;21917;-70
2022/05/18 08:05:14;;;;;;;17.08;1.20;;;18.40;94.10;;;;;;4340155;32;20281;-71
2022/05/18 08:07:45;;;;;;;2.37;1.40;;;18.40;94.90;;;;;;4357073;32;20085;-70
2022/05/18 08:15:06;;;;;;;0.40;0.40;;;18.40;93.70;;;;;;4348787;32;20798;-70
2022/05/18 08:15:43;;;;;;;0.55;0.55;;;18.50;94.60;;;;;;4349706;32;22085;-70
2022/05/18 08:18:09;;;;;;;0.50;0.50;;;18.80;94.40;;;;;;4364390;32;21038;-70
2022/05/18 08:20:39;;;;;;;4.15;0.50;;;18.80;94.00;;;;;;4368126;32;20589;-70
2022/05/18 08:23:04;;;;;;;0.30;0.30;;;18.70;94.70;;;;;;4361723;32;20162;-70
2022/05/18 08:25:30;;;;;;;0.40;0.40;;;18.90;93.80;;;;;;4367662;32;20136;-70
2022/05/18 08:27:55;;;;;;;2.30;0.85;;;19.10;95.10;;;;;;4371346;32;20111;-70
2022/05/18 08:30:21;;;;;;;0.75;0.60;;;19.30;94.90;;;;;;4346949;32;20207;-70
2022/05/18 08:32:47;;;;;;;0.65;0.65;;;19.40;93.60;;;;;;4352599;32;20113;-71
2022/05/18 08:35:14;;;;;;;0.30;0.30;;;19.30;94.00;;;;;;4343745;32;20121;-70
2022/05/18 08:37:43;;;;;;;0.30;0.30;;;19.30;95.20;;;;;;4378526;32;20085;-70
2022/05/18 08:40:20;;;;;;;0.68;0.68;;;19.30;95.10;;;;;;4381442;32;20494;-71
2022/05/18 08:42:45;;;;;;;4.00;1.02;;;19.40;94.40;;;;;;4389538;32;20183;-72
2022/05/18 08:45:11;;;;;;;0.47;0.47;;;19.20;95.40;;;;;;4387675;32;20760;-72
2022/05/18 08:47:42;;;;;;;5.97;1.00;;;19.40;95.40;;;;;;4374977;32;20209;-69
2022/05/18 08:50:11;;;;;;;;;;;19.50;94.20;;;;;;4365590;32;20206;-70
2022/05/18 08:53:05;;;;;;;7.97;1.55;;;19.50;94.50;;;;;;4370942;32;19969;-70
2022/05/18 08:55:38;;;;;;;0.43;0.43;;;19.60;94.30;;;;;;4372587;32;20468;-71
2022/05/18 08:58:11;;;;;;;1.45;0.40;;;19.60;95.60;;;;;;4388207;32;20069;-71
2022/05/18 09:00:42;;;;;;;0.50;0.50;;;19.70;95.60;;;;;;4381806;32;20089;-70
2022/05/18 09:03:13;;;;;;;1.70;0.32;;;19.80;95.90;;;;;;4366483;32;20097;-71
2022/05/18 09:05:52;;;;;;;7.82;1.20;;;19.90;96.10;;;;;;4362172;32;20144;-73
2022/05/18 09:08:23;;;;;;;1.20;0.68;;;20.10;95.80;;;;;;4382419;32;20115;-72
2022/05/18 09:10:58;;;;;;;0.60;0.60;;;20.20;95.00;;;;;;4363264;32;20827;-69
2022/05/18 09:13:24;;;;;;;0.98;0.52;;;20.40;96.20;;;;;;4383645;32;20265;-71
2022/05/18 09:15:55;;;;;;;0.43;0.43;;;20.40;95.90;;;;;;4376062;32;20389;-73
2022/05/18 09:18:30;;;;;;;0.85;0.80;;;20.50;95.50;;;;;;4376079;32;20126;-71
2022/05/18 09:21:20;;;;;;;0.30;0.30;;;20.60;96.20;;;;;;4365850;32;20129;-71
2022/05/18 09:23:58;;;;;;;0.32;0.32;;;20.70;94.40;;;;;;4357760;32;20141;-72
2022/05/18 09:26:53;;;;;;;0.20;0.20;;;20.70;94.10;;;;;;4379394;32;21166;-71
2022/05/18 09:29:29;;;;;;;1.40;0.73;;;20.90;94.80;;;;;;4351028;32;20198;-68
2022/05/18 09:32:22;;;;;;;0.35;0.35;;;21.20;94.00;;;;;;4361235;32;20164;-70
2022/05/18 09:35:28;;;;;;;0.30;0.30;;;21.20;94.60;;;;;;4344631;32;20243;-72
2022/05/18 09:38:02;;;;;;;0.60;0.60;;;21.30;94.70;;;;;;4349331;32;20409;-69
2022/05/18 09:40:34;;;;;;;0.57;0.40;;;21.40;94.50;;;;;;4362490;32;20467;-71
2022/05/18 09:43:19;;;;;;;0.40;0.40;;;21.50;94.60;;;;;;4377550;32;20333;-71
2022/05/18 09:45:47;;;;;;;0.40;0.40;;;21.60;95.00;;;;;;4381438;32;20745;-69
2022/05/18 09:48:22;;;;;;;0.50;0.50;;;21.60;93.70;;;;;;4377494;32;20149;-71
2022/05/18 09:50:50;;;;;;;0.40;0.40;;;21.90;94.40;;;;;;4377511;32;20294;-71
2022/05/18 09:53:16;;;;;;;0.60;0.60;;;21.90;93.60;;;;;;4374597;32;20511;-70
2022/05/18 09:55:46;;;;;;;18.73;0.68;;;22.10;94.70;;;;;;4378308;32;20359;-71
2022/05/18 09:58:19;;;;;;;0.40;0.40;;;22.30;93.90;;;;;;4378400;32;20184;-71
2022/05/18 10:00:45;;;;;;;1.15;1.05;;;22.30;93.40;;;;;;4369401;32;20089;-69
2022/05/18 10:07:44;;;;;;;0.35;0.35;;;22.70;93.70;;;;;;4354964;32;20707;-70
2022/05/18 10:08:57;;;;;;;0.40;0.40;;;22.90;93.30;;;;;;4350984;32;20115;-70
2022/05/18 10:11:29;;;;;;;0.30;0.30;;;22.90;94.10;;;;;;4364341;32;20119;-69
2022/05/18 10:14:05;;;;;;;0.57;0.57;;;23.10;93.70;;;;;;4384249;32;20176;-69
2022/05/18 10:16:39;;;;;;;0.43;0.43;;;23.50;92.90;;;;;;4371749;32;20417;-69
2022/05/18 10:19:16;;;;;;;0.47;0.47;;;23.70;93.60;;;;;;4369332;32;20113;-69
2022/05/18 10:21:51;;;;;;;0.80;0.80;;;23.80;92.30;;;;;;4380758;32;20934;-69
2022/05/18 10:24:41;;;;;;;2.95;0.80;;;23.90;92.40;;;;;;4372203;32;20121;-70
2022/05/18 10:27:27;;;;;;;0.53;0.53;;;23.90;92.10;;;;;;4376308;32;20114;-69
2022/05/18 10:30:18;;;;;;;0.37;0.37;;;23.90;92.80;;;;;;4367334;32;20277;-71
2022/05/18 10:33:03;;;;;;;2.00;1.27;;;24.00;92.40;;;;;;4362065;32;20288;-72
2022/05/18 10:35:34;;;;;;;0.68;0.68;;;24.40;93.00;;;;;;4362090;32;20405;-70
2022/05/18 10:38:01;;;;;;;0.47;0.47;;;24.50;93.30;;;;;;4377953;32;20291;-70
2022/05/18 10:40:27;;;;;;;1.17;0.60;;;24.70;92.60;;;;;;4364658;32;20082;-70
2022/05/18 10:42:55;;;;;;;0.30;0.30;;;24.90;92.10;;;;;;4384326;32;20077;-70
2022/05/18 10:45:28;;;;;;;0.30;0.30;;;25.10;92.10;;;;;;4392951;32;21188;-70
2022/05/18 10:47:57;;;;;;;0.68;0.68;;;25.30;91.80;;;;;;4392069;32;20213;-70
2022/05/18 10:50:34;;;;;;;2.05;1.02;;;25.30;92.40;;;;;;4370171;32;20406;-70
2022/05/18 10:53:20;;;;;;;0.32;0.32;;;25.70;91.40;;;;;;4363684;32;20340;-70
2022/05/18 10:55:58;;;;;;;0.30;0.30;;;25.80;91.10;;;;;;4341224;32;20718;-70
2022/05/18 10:58:26;;;;;;;1.87;0.75;;;26.00;91.70;;;;;;4367035;32;20534;-69
2022/05/18 11:00:58;;;;;;;0.68;0.57;;;26.10;91.20;;;;;;4367263;32;20317;-70
2022/05/18 11:03:35;;;;;;;0.37;0.37;;;26.20;90.00;;;;;;4363964;32;20421;-70
2022/05/18 11:06:16;;;;;;;1.35;0.98;;;26.30;90.20;;;;;;4377187;32;20840;-70
2022/05/18 11:08:42;;;;;;;1.55;0.80;;;26.30;89.40;;;;;;4370894;32;20110;-70
2022/05/18 11:11:16;;;;;;;0.52;0.52;;;26.30;87.20;;;;;;4369445;32;20202;-70
2022/05/18 11:14:06;;;;;;;0.85;0.70;;;26.30;90.20;;;;;;4376673;32;20112;-71
2022/05/18 11:16:41;;;;;;;4.45;0.62;;;26.50;90.20;;;;;;4373380;32;20524;-70
2022/05/18 11:19:16;;;;;;;0.30;0.30;;;26.50;89.10;;;;;;4373620;32;20186;-70
2022/05/18 11:21:50;;;;;;;0.43;0.43;;;26.60;88.20;;;;;;4380264;32;20094;-70
2022/05/18 11:24:18;;;;;;;3.70;0.80;;;27.10;87.10;;;;;;4374411;32;20272;-70
2022/05/18 11:26:57;;;;;;;0.45;0.45;;;27.50;86.30;;;;;;4385880;32;20100;-70
2022/05/18 11:29:49;;;;;;;1.08;0.85;;;26.90;85.40;;;;;;4372517;32;20377;-70
2022/05/18 11:32:51;;;;;;;6.30;1.15;;;26.90;86.10;;;;;;4364013;32;20146;-70
2022/05/18 11:35:42;;;;;;;1.55;0.68;;;26.90;89.00;;;;;;4360279;32;20109;-70
2022/05/18 11:38:24;;;;;;;0.70;0.52;;;27.10;86.40;;;;;;4354432;32;20093;-71
2022/05/18 11:41:28;;;;;;;0.28;0.25;;;27.50;85.40;;;;;;4361422;32;20793;-70
2022/05/18 11:43:59;;;;;;;1.08;0.62;;;27.90;85.90;;;;;;4350440;32;20585;-71
2022/05/18 11:46:52;;;;;;;1.08;0.62;;;27.90;85.70;;;;;;4344151;32;21180;-70
2022/05/18 11:49:31;;;;;;;0.30;0.30;;;28.10;85.40;;;;;;4340936;32;20113;-71
2022/05/18 11:52:29;;;;;;;0.57;0.40;;;28.00;85.10;;;;;;4368152;32;20229;-71
2022/05/18 11:55:04;;;;;;;0.20;0.20;;;28.30;84.70;;;;;;4370157;32;20594;-71
2022/05/18 11:57:41;;;;;;;0.32;0.32;;;28.60;82.20;;;;;;4383367;32;20113;-70
2022/05/18 12:00:15;;;;;;;0.35;0.35;;;28.90;80.80;;;;;;4371188;32;20732;-70
2022/05/18 12:02:55;;;;;;;3.37;0.60;;;29.30;80.30;;;;;;4378017;32;20549;-71
2022/05/18 12:05:45;;;;;;;1.93;0.33;;;29.20;82.00;;;;;;4379802;32;20158;-71
2022/05/18 12:08:28;;;;;;;0.52;0.52;;;28.90;81.90;;;;;;4382440;32;20403;-71
2022/05/18 12:11:08;;;;;;;0.57;0.45;;;29.40;78.90;;;;;;4369881;32;21271;-71
2022/05/18 12:14:02;;;;;;;0.62;0.50;;;29.50;78.50;;;;;;4374303;32;20197;-71
2022/05/18 12:16:59;;;;;;;0.85;0.57;;;29.20;76.90;;;;;;4365426;32;20490;-70
2022/05/18 12:19:56;;;;;;;0.35;0.35;;;29.40;75.60;;;;;;4363380;32;20292;-70
2022/05/18 12:22:29;;;;;;;5.40;0.80;;;28.90;77.30;;;;;;4362445;32;20317;-71
2022/05/18 12:24:55;;;;;;;0.40;0.40;;;29.00;79.10;;;;;;4378906;32;20117;-71
2022/05/18 12:27:22;;;;;;;0.20;0.20;;;29.30;78.10;;;;;;4384711;32;20106;-71
2022/05/18 12:29:50;;;;;;;0.25;0.25;;;29.30;76.20;;;;;;4372010;32;20246;-71
2022/05/18 12:32:17;;;;;;;0.70;0.65;;;29.90;75.50;;;;;;4358146;32;20592;-70
2022/05/18 12:34:56;;;;;;;0.45;0.40;;;30.00;75.70;;;;;;4363970;32;20223;-70
2022/05/18 12:37:31;;;;;;;0.10;0.10;;;29.60;74.40;;;;;;4374043;32;20464;-71
2022/05/18 12:40:24;;;;;;;0.43;0.40;;;29.80;75.20;;;;;;4362848;32;20268;-70
2022/05/18 12:42:56;;;;;;;6.78;0.82;;;29.80;76.80;;;;;;4353494;32;20121;-71
2022/05/18 12:45:44;;;;;;;0.17;0.17;;;30.00;76.50;;;;;;4379564;32;20276;-70
2022/05/18 12:48:32;;;;;;;3.30;0.62;;;30.20;73.00;;;;;;4382650;32;20159;-70
2022/05/18 12:51:36;;;;;;;0.20;0.20;;;30.30;71.70;;;;;;4378133;32;20086;-70
2022/05/18 12:54:06;;;;;;;0.80;0.30;;;30.30;71.70;;;;;;4392057;32;20085;-69
2022/05/18 12:56:42;;;;;;;4.60;1.23;;;31.00;70.50;;;;;;4404780;32;20073;-70
2022/05/18 12:59:11;;;;;;;1.75;1.08;;;31.20;71.80;;;;;;4391461;32;20176;-70
2022/05/18 13:01:40;;;;;;;1.13;0.67;;;31.50;68.30;;;;;;4385866;32;20844;-69
2022/05/18 13:04:11;;;;;;;0.35;0.35;;;30.90;71.20;;;;;;4375260;32;20455;-69
2022/05/18 13:06:39;;;;;;;0.35;0.32;;;29.90;70.60;;;;;;4389325;32;20358;-70
2022/05/18 13:09:30;;;;;;;0.50;0.30;;;30.00;70.40;;;;;;4379146;32;20294;-70
2022/05/18 13:12:24;;;;;;;1.75;0.62;;;30.10;65.90;;;;;;4366999;32;20262;-69